Time;durP1;ratioP1;P1;durP2;ratioP2;P2;SDS_P1;SDS_P2;PMS_P1;PMS_P2;Temp;Humidity;BMP_temperature;BMP_pressure;BME280_temperature;BME280_humidity;BME280_pressure;Samples;Min_cycle;Max_cycle;Signal;HPM_P1;HPM_P2
2022/11/04 00:01:43;;;;;;;6.85;5.78;;;;;;;;;;4954692;28;20115;-78
2022/11/04 00:04:10;;;;;;;7.18;5.10;;;;;;;;;;4944976;28;20480;-77
2022/11/04 00:06:36;;;;;;;6.00;4.30;;;;;;;;;;4944522;28;20496;-77
2022/11/04 00:09:04;;;;;;;5.57;3.85;;;;;;;;;;4946104;28;20031;-77
2022/11/04 00:14:14;;;;;;;4.60;3.00;;;;;;;;;;4948373;29;20495;-77
2022/11/04 00:19:23;;;;;;;3.15;1.85;;;;;;;;;;4949615;28;20452;-77
2022/11/04 00:30:07;;;;;;;3.00;1.70;;;;;;;;;;4942759;28;20042;-78
2022/11/04 00:35:17;;;;;;;2.10;1.10;;;;;;;;;;4949894;28;20038;-77
2022/11/04 00:37:43;;;;;;;2.10;1.20;;;;;;;;;;4947839;28;20027;-77
2022/11/04 00:40:11;;;;;;;2.03;1.10;;;;;;;;;;4948035;29;20391;-78
2022/11/04 00:42:37;;;;;;;1.40;0.98;;;;;;;;;;4953843;28;20019;-77
2022/11/04 00:45:03;;;;;;;2.10;1.08;;;;;;;;;;4949748;28;20402;-77
2022/11/04 00:47:29;;;;;;;3.28;1.00;;;;;;;;;;4950545;28;20480;-77
2022/11/04 00:49:54;;;;;;;2.70;1.27;;;;;;;;;;4952856;28;20038;-77
2022/11/04 00:52:20;;;;;;;3.90;1.50;;;;;;;;;;4951967;28;20050;-77
2022/11/04 00:54:45;;;;;;;2.60;1.40;;;;;;;;;;4952966;28;20471;-78
2022/11/04 00:57:11;;;;;;;3.47;1.60;;;;;;;;;;4949919;28;20038;-77
2022/11/04 00:59:38;;;;;;;3.72;2.00;;;;;;;;;;4951832;29;20031;-77
2022/11/04 01:02:04;;;;;;;3.95;1.95;;;;;;;;;;4951557;28;20027;-78
2022/11/04 01:04:30;;;;;;;4.18;2.30;;;;;;;;;;4946043;28;20097;-77
2022/11/04 01:06:55;;;;;;;5.10;3.10;;;;;;;;;;4952169;28;20063;-78
2022/11/04 01:09:20;;;;;;;7.53;3.30;;;;;;;;;;4950057;28;20031;-77
2022/11/04 01:11:46;;;;;;;5.32;3.47;;;;;;;;;;4953403;28;20059;-77
2022/11/04 01:14:12;;;;;;;6.18;3.70;;;;;;;;;;4949461;28;20024;-78
2022/11/04 01:16:37;;;;;;;5.72;4.43;;;;;;;;;;4950706;28;20023;-78
2022/11/04 01:19:03;;;;;;;7.60;4.43;;;;;;;;;;4949094;28;21680;-78
2022/11/04 01:21:29;;;;;;;8.98;5.13;;;;;;;;;;4952162;29;20031;-77
2022/11/04 01:23:55;;;;;;;6.90;5.03;;;;;;;;;;4950910;28;20051;-77
2022/11/04 01:26:22;;;;;;;8.25;5.50;;;;;;;;;;4956408;28;20578;-78
2022/11/04 01:28:48;;;;;;;7.40;5.82;;;;;;;;;;4946297;28;20071;-77
2022/11/04 01:31:22;;;;;;;9.35;6.65;;;;;;;;;;4971417;28;20055;-78
2022/11/04 01:33:48;;;;;;;9.85;6.68;;;;;;;;;;4964953;28;20026;-78
2022/11/04 01:36:14;;;;;;;9.65;6.60;;;;;;;;;;4948292;28;20041;-78
2022/11/04 01:38:39;;;;;;;9.77;7.07;;;;;;;;;;4949349;28;20391;-77
2022/11/04 01:41:06;;;;;;;10.48;6.55;;;;;;;;;;4951063;28;20031;-78
2022/11/04 01:43:50;;;;;;;11.52;8.55;;;;;;;;;;4958858;28;20023;-77
2022/11/04 01:46:42;;;;;;;9.98;7.57;;;;;;;;;;4964279;28;20075;-77
2022/11/04 01:49:29;;;;;;;9.98;7.45;;;;;;;;;;4948494;29;20034;-77
2022/11/04 01:52:18;;;;;;;11.68;7.78;;;;;;;;;;4947620;28;20035;-77
2022/11/04 01:54:46;;;;;;;11.50;7.95;;;;;;;;;;4944727;28;20491;-78
2022/11/04 01:57:17;;;;;;;10.95;7.78;;;;;;;;;;4965046;28;20515;-76
2022/11/04 01:59:43;;;;;;;10.93;7.63;;;;;;;;;;4944834;28;20027;-77
2022/11/04 02:02:08;;;;;;;10.65;7.90;;;;;;;;;;4950279;28;20069;-77
2022/11/04 02:04:35;;;;;;;10.55;8.18;;;;;;;;;;4949053;28;20029;-77
2022/11/04 02:07:05;;;;;;;16.23;8.30;;;;;;;;;;4950577;28;20033;-78
2022/11/04 02:09:32;;;;;;;10.68;7.78;;;;;;;;;;4946395;28;20702;-78
2022/11/04 02:14:42;;;;;;;10.35;7.22;;;;;;;;;;4948910;28;20627;-78
2022/11/04 02:17:14;;;;;;;9.85;7.25;;;;;;;;;;4953597;28;20633;-78
2022/11/04 02:20:05;;;;;;;10.93;7.37;;;;;;;;;;4958146;28;20029;-77
2022/11/04 02:22:34;;;;;;;8.63;6.65;;;;;;;;;;4951234;28;20019;-78
2022/11/04 02:25:08;;;;;;;9.73;6.35;;;;;;;;;;4965874;28;20081;-77
2022/11/04 02:27:53;;;;;;;9.60;6.90;;;;;;;;;;4965602;28;20031;-77
2022/11/04 02:30:20;;;;;;;9.00;5.72;;;;;;;;;;4961128;28;20035;-78
2022/11/04 02:32:53;;;;;;;9.10;6.22;;;;;;;;;;4949235;28;20039;-77
2022/11/04 02:35:29;;;;;;;11.25;6.25;;;;;;;;;;4953928;28;20038;-78
2022/11/04 02:38:03;;;;;;;7.70;5.80;;;;;;;;;;4947847;28;20075;-77
2022/11/04 02:40:38;;;;;;;9.32;5.90;;;;;;;;;;4962503;28;20128;-79
2022/11/04 02:43:21;;;;;;;8.13;5.07;;;;;;;;;;4952065;28;20141;-78
2022/11/04 02:45:49;;;;;;;6.80;4.75;;;;;;;;;;4949306;28;20035;-78
2022/11/04 02:48:29;;;;;;;8.90;5.32;;;;;;;;;;4950087;28;21676;-77
2022/11/04 02:51:09;;;;;;;7.95;4.68;;;;;;;;;;4952688;29;20106;-77
2022/11/04 02:53:49;;;;;;;8.35;4.57;;;;;;;;;;4946971;28;20031;-77
2022/11/04 02:56:18;;;;;;;8.07;4.35;;;;;;;;;;4961738;28;20019;-77
2022/11/04 02:58:50;;;;;;;8.13;4.30;;;;;;;;;;4948000;29;20027;-78
2022/11/04 03:01:18;;;;;;;9.13;4.68;;;;;;;;;;4963581;28;20031;-78
2022/11/04 03:03:50;;;;;;;8.55;3.92;;;;;;;;;;4947246;28;21006;-77
2022/11/04 03:06:20;;;;;;;6.13;4.10;;;;;;;;;;4945859;28;20063;-77
2022/11/04 03:08:49;;;;;;;6.63;3.72;;;;;;;;;;4946478;28;20043;-78
2022/11/04 03:11:17;;;;;;;5.85;3.63;;;;;;;;;;4958745;28;20023;-77
2022/11/04 03:14:00;;;;;;;6.03;3.63;;;;;;;;;;4946889;28;20027;-80
2022/11/04 03:16:43;;;;;;;4.95;3.17;;;;;;;;;;4946330;28;20070;-78
2022/11/04 03:19:14;;;;;;;8.38;3.53;;;;;;;;;;4948267;28;20081;-78
2022/11/04 03:21:57;;;;;;;7.70;3.63;;;;;;;;;;4947233;28;20391;-78
2022/11/04 03:24:22;;;;;;;5.65;3.28;;;;;;;;;;4968390;28;20031;-77
2022/11/04 03:27:19;;;;;;;6.13;3.25;;;;;;;;;;4952438;29;20495;-76
2022/11/04 03:30:16;;;;;;;5.22;2.85;;;;;;;;;;4947382;28;20046;-78
2022/11/04 03:32:49;;;;;;;5.45;2.80;;;;;;;;;;4948877;28;20045;-77
2022/11/04 03:35:15;;;;;;;4.75;2.50;;;;;;;;;;4951572;28;20364;-78
2022/11/04 03:37:42;;;;;;;4.18;2.17;;;;;;;;;;4957049;28;20391;-77
2022/11/04 03:40:08;;;;;;;5.20;2.30;;;;;;;;;;4945734;28;20543;-77
2022/11/04 03:42:41;;;;;;;5.28;2.60;;;;;;;;;;4949626;28;20153;-78
2022/11/04 03:45:07;;;;;;;5.70;2.17;;;;;;;;;;4953865;28;20027;-77
2022/11/04 03:47:32;;;;;;;4.82;2.17;;;;;;;;;;4949742;29;20031;-79
2022/11/04 03:50:07;;;;;;;4.03;2.30;;;;;;;;;;4947013;28;20039;-76
2022/11/04 03:52:33;;;;;;;4.25;2.47;;;;;;;;;;4950305;28;20027;-77
2022/11/04 03:54:58;;;;;;;4.25;2.30;;;;;;;;;;4947061;28;20054;-77
2022/11/04 03:57:40;;;;;;;3.80;2.30;;;;;;;;;;4959860;28;20602;-78
2022/11/04 04:00:12;;;;;;;4.47;2.10;;;;;;;;;;4949568;28;20041;-77
2022/11/04 04:02:48;;;;;;;4.13;1.90;;;;;;;;;;4946082;28;20166;-78
2022/11/04 04:05:38;;;;;;;4.80;2.20;;;;;;;;;;4948784;28;20521;-78
2022/11/04 04:08:12;;;;;;;4.07;1.90;;;;;;;;;;4949779;28;20098;-78
2022/11/04 04:10:47;;;;;;;3.78;1.95;;;;;;;;;;4959911;28;20061;-77
2022/11/04 04:13:38;;;;;;;5.88;2.20;;;;;;;;;;4943906;28;20110;-77
2022/11/04 04:16:14;;;;;;;4.65;2.20;;;;;;;;;;4959457;28;20027;-77
2022/11/04 04:18:51;;;;;;;4.57;2.33;;;;;;;;;;4947174;28;20499;-79
2022/11/04 04:21:21;;;;;;;3.95;1.92;;;;;;;;;;4949581;28;20487;-78
2022/11/04 04:29:21;;;;;;;3.25;1.52;;;;;;;;;;4947045;28;20082;-77
2022/11/04 04:31:48;;;;;;;3.08;1.60;;;;;;;;;;4947132;28;20053;-77
2022/11/04 04:34:18;;;;;;;5.38;1.88;;;;;;;;;;4942626;28;20027;-79
2022/11/04 04:36:57;;;;;;;3.55;1.70;;;;;;;;;;4947166;28;20102;-77
2022/11/04 04:44:58;;;;;;;3.97;1.63;;;;;;;;;;4946875;28;20029;-77
2022/11/04 04:47:27;;;;;;;3.88;1.65;;;;;;;;;;4962773;28;20038;-77
2022/11/04 04:49:55;;;;;;;3.70;1.52;;;;;;;;;;4945358;28;20129;-79
2022/11/04 04:52:23;;;;;;;3.25;1.40;;;;;;;;;;4947179;28;20034;-77
2022/11/04 04:54:48;;;;;;;3.30;1.52;;;;;;;;;;4957685;28;20511;-77
2022/11/04 04:57:14;;;;;;;3.60;1.70;;;;;;;;;;4938899;28;20114;-78
2022/11/04 04:59:39;;;;;;;4.82;1.80;;;;;;;;;;4939913;28;20027;-77
2022/11/04 05:02:05;;;;;;;4.20;1.52;;;;;;;;;;4947408;28;20019;-78
2022/11/04 05:04:30;;;;;;;6.07;1.80;;;;;;;;;;4949512;28;20391;-77
2022/11/04 05:06:56;;;;;;;5.28;1.75;;;;;;;;;;4950147;28;20027;-77
2022/11/04 05:09:21;;;;;;;3.47;1.50;;;;;;;;;;4953654;28;20526;-77
2022/11/04 05:11:47;;;;;;;3.55;1.48;;;;;;;;;;4952024;28;20042;-77
2022/11/04 05:14:12;;;;;;;6.00;1.60;;;;;;;;;;4953134;28;20542;-79
2022/11/04 05:16:38;;;;;;;4.53;1.85;;;;;;;;;;4947441;28;20042;-78
2022/11/04 05:19:03;;;;;;;3.25;1.50;;;;;;;;;;4956220;28;20028;-77
2022/11/04 05:21:28;;;;;;;4.45;1.70;;;;;;;;;;4943817;28;20106;-78
2022/11/04 05:23:54;;;;;;;10.20;1.80;;;;;;;;;;4949116;28;20026;-77
2022/11/04 05:26:20;;;;;;;3.55;1.60;;;;;;;;;;4949241;28;20443;-77
2022/11/04 05:28:45;;;;;;;2.92;1.40;;;;;;;;;;4949698;28;20476;-78
2022/11/04 05:31:11;;;;;;;3.35;1.38;;;;;;;;;;4951175;28;20061;-77
2022/11/04 05:33:36;;;;;;;4.03;1.50;;;;;;;;;;4952554;28;20392;-77
2022/11/04 05:36:10;;;;;;;5.25;1.58;;;;;;;;;;4951240;28;20033;-77
2022/11/04 05:38:36;;;;;;;3.65;1.50;;;;;;;;;;4948529;28;20407;-76
2022/11/04 05:41:02;;;;;;;4.45;1.40;;;;;;;;;;4952211;28;20023;-77
2022/11/04 05:43:28;;;;;;;3.78;1.67;;;;;;;;;;4949580;28;20023;-78
2022/11/04 05:45:53;;;;;;;4.75;2.05;;;;;;;;;;4953150;29;20031;-77
2022/11/04 05:48:19;;;;;;;3.35;1.35;;;;;;;;;;4948235;28;20125;-77
2022/11/04 05:50:45;;;;;;;3.25;1.23;;;;;;;;;;4948730;28;20039;-78
2022/11/04 05:53:10;;;;;;;4.65;1.48;;;;;;;;;;4944897;28;20220;-77
2022/11/04 05:55:36;;;;;;;2.90;1.50;;;;;;;;;;4953018;29;20034;-77
2022/11/04 05:58:01;;;;;;;2.72;1.30;;;;;;;;;;4947642;28;20396;-78
2022/11/04 06:00:27;;;;;;;4.15;1.52;;;;;;;;;;4948906;28;20090;-77
2022/11/04 06:02:57;;;;;;;3.63;1.45;;;;;;;;;;4951490;28;20027;-76
2022/11/04 06:05:23;;;;;;;3.60;1.20;;;;;;;;;;4946103;28;20411;-78
2022/11/04 06:07:48;;;;;;;2.13;1.20;;;;;;;;;;4939549;28;20039;-76
2022/11/04 06:10:14;;;;;;;5.95;1.67;;;;;;;;;;4949979;29;20031;-77
2022/11/04 06:12:39;;;;;;;5.95;1.70;;;;;;;;;;4948615;28;20046;-77
2022/11/04 06:15:05;;;;;;;5.15;1.88;;;;;;;;;;4946588;28;20050;-77
2022/11/04 06:17:30;;;;;;;3.15;1.45;;;;;;;;;;4949835;28;20031;-78
2022/11/04 06:19:56;;;;;;;4.95;1.75;;;;;;;;;;4941209;28;20068;-78
2022/11/04 06:22:21;;;;;;;4.75;1.50;;;;;;;;;;4948645;28;20065;-78
2022/11/04 06:24:47;;;;;;;6.10;1.60;;;;;;;;;;4951695;28;20042;-78
2022/11/04 06:27:12;;;;;;;2.78;1.27;;;;;;;;;;4952933;28;20031;-78
2022/11/04 06:29:41;;;;;;;3.53;1.50;;;;;;;;;;4951790;28;20297;-77
2022/11/04 06:32:13;;;;;;;8.65;1.50;;;;;;;;;;4952706;28;20023;-78
2022/11/04 06:34:38;;;;;;;5.63;1.50;;;;;;;;;;4949036;28;20023;-77
2022/11/04 06:37:04;;;;;;;3.70;1.55;;;;;;;;;;4946340;28;20027;-78
2022/11/04 06:39:29;;;;;;;3.47;1.45;;;;;;;;;;4950058;28;20053;-77
2022/11/04 06:41:54;;;;;;;4.22;1.35;;;;;;;;;;4948958;28;20992;-77
2022/11/04 06:44:20;;;;;;;3.88;1.45;;;;;;;;;;4952404;28;20082;-77
2022/11/04 06:46:46;;;;;;;3.80;1.45;;;;;;;;;;4954826;28;20446;-76
2022/11/04 06:49:14;;;;;;;3.58;1.40;;;;;;;;;;4963446;28;20395;-78
2022/11/04 06:51:39;;;;;;;2.97;1.40;;;;;;;;;;4958364;28;20038;-77
2022/11/04 06:54:05;;;;;;;3.58;1.20;;;;;;;;;;4948737;28;21352;-78
2022/11/04 06:56:30;;;;;;;4.38;1.60;;;;;;;;;;4954993;28;20033;-78
2022/11/04 06:58:56;;;;;;;5.70;1.77;;;;;;;;;;4942248;28;20035;-78
2022/11/04 07:01:24;;;;;;;3.50;1.48;;;;;;;;;;4961723;28;20065;-78
2022/11/04 07:03:52;;;;;;;4.80;1.35;;;;;;;;;;4948540;28;20031;-77
2022/11/04 07:06:18;;;;;;;3.95;1.60;;;;;;;;;;4949508;28;20055;-77
2022/11/04 07:08:44;;;;;;;4.78;1.52;;;;;;;;;;4952922;29;20027;-77
2022/11/04 07:11:10;;;;;;;6.60;1.70;;;;;;;;;;4951481;29;20427;-77
2022/11/04 07:13:35;;;;;;;4.25;1.30;;;;;;;;;;4951212;28;20498;-77
2022/11/04 07:16:04;;;;;;;3.50;1.40;;;;;;;;;;4947395;28;20033;-77
2022/11/04 07:18:29;;;;;;;4.07;1.50;;;;;;;;;;4966360;28;20090;-77
2022/11/04 07:20:56;;;;;;;2.97;1.40;;;;;;;;;;4947914;28;20040;-77
2022/11/04 07:23:21;;;;;;;5.40;1.85;;;;;;;;;;4953150;28;20027;-77
2022/11/04 07:25:47;;;;;;;2.75;1.58;;;;;;;;;;4952681;28;20023;-77
2022/11/04 07:28:12;;;;;;;5.18;1.50;;;;;;;;;;4952965;28;20031;-77
2022/11/04 07:30:37;;;;;;;3.95;1.60;;;;;;;;;;4948386;28;20031;-77
2022/11/04 07:33:03;;;;;;;5.60;1.90;;;;;;;;;;4946545;28;20031;-77
2022/11/04 07:35:28;;;;;;;3.53;1.60;;;;;;;;;;4944509;29;20502;-78
2022/11/04 07:37:54;;;;;;;4.82;1.80;;;;;;;;;;4964502;28;20101;-78
2022/11/04 07:40:19;;;;;;;3.85;1.70;;;;;;;;;;4953130;28;20035;-78
2022/11/04 07:42:45;;;;;;;4.90;1.55;;;;;;;;;;4953958;29;20023;-78
2022/11/04 07:45:11;;;;;;;3.97;1.60;;;;;;;;;;4943137;28;20530;-77
2022/11/04 07:47:36;;;;;;;4.63;2.10;;;;;;;;;;4951507;28;20034;-78
2022/11/04 07:50:01;;;;;;;5.22;2.20;;;;;;;;;;4965020;28;20027;-78
2022/11/04 07:52:27;;;;;;;4.25;1.70;;;;;;;;;;4951155;29;20049;-78
2022/11/04 07:54:52;;;;;;;4.65;1.92;;;;;;;;;;4965162;28;20489;-77
2022/11/04 07:57:18;;;;;;;4.90;2.20;;;;;;;;;;4939807;28;20031;-78
2022/11/04 07:59:43;;;;;;;4.97;2.10;;;;;;;;;;4952357;28;20023;-77
2022/11/04 08:02:09;;;;;;;6.13;2.13;;;;;;;;;;4948799;28;20491;-77
2022/11/04 08:04:35;;;;;;;9.43;2.28;;;;;;;;;;4945304;28;20035;-77
2022/11/04 08:07:01;;;;;;;4.63;2.17;;;;;;;;;;4951761;28;20163;-77
2022/11/04 08:09:26;;;;;;;4.82;1.88;;;;;;;;;;4966178;28;20173;-78
2022/11/04 08:11:52;;;;;;;5.72;2.35;;;;;;;;;;4947656;28;20031;-78
2022/11/04 08:14:17;;;;;;;7.68;2.20;;;;;;;;;;4968902;28;20118;-77
2022/11/04 08:16:42;;;;;;;7.05;2.80;;;;;;;;;;4950863;28;20035;-77
2022/11/04 08:19:08;;;;;;;4.22;2.40;;;;;;;;;;4949171;28;20331;-77
2022/11/04 08:21:33;;;;;;;7.63;2.72;;;;;;;;;;4950013;28;20035;-77
2022/11/04 08:24:02;;;;;;;5.93;2.95;;;;;;;;;;4950806;29;20490;-77
2022/11/04 08:26:27;;;;;;;8.88;2.80;;;;;;;;;;4961116;28;20051;-78
2022/11/04 08:28:52;;;;;;;5.68;2.92;;;;;;;;;;4965418;28;20472;-79
2022/11/04 08:31:23;;;;;;;5.53;2.90;;;;;;;;;;4945468;28;20039;-78
2022/11/04 08:33:48;;;;;;;8.57;2.97;;;;;;;;;;4951478;29;20031;-78
2022/11/04 08:36:17;;;;;;;6.25;3.00;;;;;;;;;;4949685;28;20038;-78
2022/11/04 08:38:43;;;;;;;5.30;2.75;;;;;;;;;;4950734;28;20035;-78
2022/11/04 08:41:10;;;;;;;7.70;3.53;;;;;;;;;;4952007;28;20042;-78
2022/11/04 08:43:35;;;;;;;8.50;2.80;;;;;;;;;;4951761;28;20483;-78
2022/11/04 08:46:04;;;;;;;5.70;2.67;;;;;;;;;;4951589;28;20027;-77
2022/11/04 08:48:29;;;;;;;6.50;3.15;;;;;;;;;;4953461;28;20027;-78
2022/11/04 08:51:00;;;;;;;5.50;2.95;;;;;;;;;;4955788;28;20498;-78
2022/11/04 08:53:26;;;;;;;5.68;3.05;;;;;;;;;;4948740;28;20023;-78
2022/11/04 08:55:51;;;;;;;6.55;2.85;;;;;;;;;;4958395;28;20031;-77
2022/11/04 08:58:17;;;;;;;7.43;2.92;;;;;;;;;;4950186;29;20161;-78
2022/11/04 09:00:42;;;;;;;5.10;2.78;;;;;;;;;;4957951;28;20511;-78
2022/11/04 09:03:08;;;;;;;9.02;2.75;;;;;;;;;;4950427;28;20037;-77
2022/11/04 09:05:40;;;;;;;8.23;3.20;;;;;;;;;;4952429;28;20078;-79
2022/11/04 09:08:05;;;;;;;5.85;2.72;;;;;;;;;;4958138;28;20034;-78
2022/11/04 09:10:31;;;;;;;6.78;2.60;;;;;;;;;;4953621;28;20023;-78
2022/11/04 09:12:56;;;;;;;5.20;2.75;;;;;;;;;;4968276;28;20114;-77
2022/11/04 09:15:21;;;;;;;6.45;3.10;;;;;;;;;;4953754;28;20476;-78
2022/11/04 09:17:47;;;;;;;7.15;3.47;;;;;;;;;;4955337;28;20054;-78
2022/11/04 09:20:12;;;;;;;7.28;3.30;;;;;;;;;;4954163;28;20094;-77
2022/11/04 09:22:37;;;;;;;5.30;3.08;;;;;;;;;;4951033;28;20491;-77
2022/11/04 09:25:03;;;;;;;5.65;2.50;;;;;;;;;;4947687;28;20078;-78
2022/11/04 09:27:29;;;;;;;7.70;2.85;;;;;;;;;;4953733;29;20107;-78
2022/11/04 09:29:54;;;;;;;8.23;2.60;;;;;;;;;;4954526;29;20034;-77
2022/11/04 09:32:20;;;;;;;6.72;2.95;;;;;;;;;;4968406;28;20028;-78
2022/11/04 09:34:45;;;;;;;7.78;3.65;;;;;;;;;;4967382;28;20066;-77
2022/11/04 09:37:11;;;;;;;6.43;2.88;;;;;;;;;;4952104;28;20027;-77
2022/11/04 09:39:36;;;;;;;6.30;3.00;;;;;;;;;;4970343;28;20458;-77
2022/11/04 09:42:39;;;;;;;8.40;3.42;;;;;;;;;;4956172;29;20031;-77
2022/11/04 09:45:17;;;;;;;6.47;3.67;;;;;;;;;;4968559;28;20059;-78
2022/11/04 09:47:44;;;;;;;6.85;3.40;;;;;;;;;;4954119;28;20038;-78
2022/11/04 09:50:19;;;;;;;8.18;3.60;;;;;;;;;;4952744;28;20038;-77
2022/11/04 09:52:51;;;;;;;9.07;3.53;;;;;;;;;;4968749;28;20415;-78
2022/11/04 09:55:45;;;;;;;6.03;2.40;;;;;;;;;;4951234;28;20031;-78
2022/11/04 09:58:13;;;;;;;4.63;1.98;;;;;;;;;;4955756;28;20038;-77
2022/11/04 10:00:43;;;;;;;4.22;2.05;;;;;;;;;;4954789;28;20027;-78
2022/11/04 10:03:36;;;;;;;7.55;2.75;;;;;;;;;;4950677;28;20038;-78
2022/11/04 10:06:31;;;;;;;3.83;2.23;;;;;;;;;;4950294;28;20122;-78
2022/11/04 10:09:28;;;;;;;6.20;2.70;;;;;;;;;;4953132;28;20286;-77
2022/11/04 10:12:23;;;;;;;4.22;2.30;;;;;;;;;;4954441;28;20110;-78
2022/11/04 10:15:12;;;;;;;6.18;2.88;;;;;;;;;;4953663;28;20027;-78
2022/11/04 10:18:22;;;;;;;5.78;2.88;;;;;;;;;;4944623;29;20031;-77
2022/11/04 10:21:24;;;;;;;7.55;3.30;;;;;;;;;;4942756;29;20086;-78
2022/11/04 10:24:04;;;;;;;5.97;3.17;;;;;;;;;;4954767;29;20031;-77
2022/11/04 10:26:44;;;;;;;6.10;3.45;;;;;;;;;;4955067;29;20502;-77
2022/11/04 10:29:31;;;;;;;8.20;3.60;;;;;;;;;;4955518;28;20113;-78
2022/11/04 10:32:00;;;;;;;8.52;3.80;;;;;;;;;;4948644;29;20387;-77
2022/11/04 10:34:36;;;;;;;7.22;3.42;;;;;;;;;;4954001;29;20035;-77
2022/11/04 10:37:03;;;;;;;6.15;2.97;;;;;;;;;;4947590;28;20034;-76
2022/11/04 10:39:32;;;;;;;8.25;3.88;;;;;;;;;;4950436;28;20039;-78
2022/11/04 10:41:58;;;;;;;10.18;4.10;;;;;;;;;;4945533;28;20511;-77
2022/11/04 10:44:31;;;;;;;6.13;3.28;;;;;;;;;;4952213;28;20019;-76
2022/11/04 10:46:58;;;;;;;9.35;3.83;;;;;;;;;;4954705;28;20447;-77
2022/11/04 10:49:36;;;;;;;8.70;4.43;;;;;;;;;;4956237;28;20093;-77
2022/11/04 10:52:01;;;;;;;8.60;4.45;;;;;;;;;;4953593;28;20402;-77
2022/11/04 10:54:29;;;;;;;11.65;4.70;;;;;;;;;;4946620;28;20027;-77
2022/11/04 10:56:55;;;;;;;7.68;3.75;;;;;;;;;;4947643;28;20082;-78
2022/11/04 10:59:30;;;;;;;6.45;3.40;;;;;;;;;;4951221;28;20039;-76
2022/11/04 11:02:01;;;;;;;9.70;4.80;;;;;;;;;;4966009;28;20042;-77
2022/11/04 11:04:34;;;;;;;9.40;4.32;;;;;;;;;;4945824;28;20028;-77
2022/11/04 11:07:03;;;;;;;11.00;4.50;;;;;;;;;;4976082;28;20463;-77
2022/11/04 11:09:32;;;;;;;9.73;4.60;;;;;;;;;;4952477;28;20050;-78
2022/11/04 11:12:02;;;;;;;9.00;4.57;;;;;;;;;;4951133;28;20030;-77
2022/11/04 11:14:27;;;;;;;10.13;4.60;;;;;;;;;;4951088;28;20030;-77
2022/11/04 11:17:13;;;;;;;7.03;4.65;;;;;;;;;;4955038;28;20027;-78
2022/11/04 11:20:04;;;;;;;6.63;3.80;;;;;;;;;;4955164;28;20041;-78
2022/11/04 11:22:44;;;;;;;12.10;4.75;;;;;;;;;;4954514;28;20054;-77
2022/11/04 11:25:29;;;;;;;8.15;4.40;;;;;;;;;;4953523;28;20400;-77
2022/11/04 11:28:04;;;;;;;14.38;4.70;;;;;;;;;;4954865;28;20016;-77
2022/11/04 11:30:37;;;;;;;8.07;5.13;;;;;;;;;;4954244;28;20037;-77
2022/11/04 11:33:26;;;;;;;9.93;5.63;;;;;;;;;;4950905;28;20027;-77
2022/11/04 11:35:59;;;;;;;11.88;6.00;;;;;;;;;;4949186;28;20034;-77
2022/11/04 11:38:27;;;;;;;9.63;6.00;;;;;;;;;;4952199;28;20031;-77
2022/11/04 11:41:04;;;;;;;13.93;6.80;;;;;;;;;;4951378;28;20074;-77
2022/11/04 11:43:32;;;;;;;10.02;6.57;;;;;;;;;;4960967;28;20030;-77
2022/11/04 11:45:59;;;;;;;13.40;7.60;;;;;;;;;;4955872;28;20031;-78
2022/11/04 11:48:38;;;;;;;12.07;7.45;;;;;;;;;;4964399;28;20368;-77
2022/11/04 11:51:05;;;;;;;11.38;6.85;;;;;;;;;;4951389;28;20085;-77
2022/11/04 11:53:35;;;;;;;10.02;6.05;;;;;;;;;;4950906;28;20424;-78
2022/11/04 11:56:31;;;;;;;10.15;6.30;;;;;;;;;;4950469;28;20054;-77
2022/11/04 11:59:17;;;;;;;12.95;6.82;;;;;;;;;;4948975;28;20376;-77
2022/11/04 12:02:18;;;;;;;12.77;6.47;;;;;;;;;;4951020;28;20167;-77
2022/11/04 12:04:44;;;;;;;10.48;6.10;;;;;;;;;;4939532;28;20036;-78
2022/11/04 12:07:31;;;;;;;14.02;7.32;;;;;;;;;;4946490;28;20039;-76
2022/11/04 12:10:07;;;;;;;14.32;7.53;;;;;;;;;;4965996;28;20029;-77
2022/11/04 12:12:54;;;;;;;13.18;8.38;;;;;;;;;;4950955;28;20494;-77
2022/11/04 12:15:55;;;;;;;12.90;8.10;;;;;;;;;;4950689;28;20031;-76
2022/11/04 12:19:08;;;;;;;14.85;8.05;;;;;;;;;;4942226;29;20578;-77
2022/11/04 12:21:59;;;;;;;12.15;7.45;;;;;;;;;;4898008;29;20076;-77
2022/11/04 12:24:33;;;;;;;15.07;8.82;;;;;;;;;;4976217;28;20031;-76
2022/11/04 12:27:21;;;;;;;12.77;8.50;;;;;;;;;;4955719;28;20031;-76
2022/11/04 12:30:17;;;;;;;14.02;9.00;;;;;;;;;;4966457;28;20035;-76
2022/11/04 12:33:09;;;;;;;14.73;8.57;;;;;;;;;;4960558;28;20126;-76
2022/11/04 12:36:01;;;;;;;16.20;9.23;;;;;;;;;;4972309;28;20114;-76
2022/11/04 12:38:33;;;;;;;15.53;9.33;;;;;;;;;;4956564;28;20039;-77
2022/11/04 12:41:32;;;;;;;12.30;9.02;;;;;;;;;;4956692;28;20470;-77
2022/11/04 12:44:29;;;;;;;13.15;9.10;;;;;;;;;;4974796;28;20035;-76
2022/11/04 12:47:25;;;;;;;14.40;9.10;;;;;;;;;;4952958;28;20053;-77
2022/11/04 12:50:02;;;;;;;14.65;9.02;;;;;;;;;;4967171;28;20023;-76
2022/11/04 12:52:33;;;;;;;13.25;9.02;;;;;;;;;;4970676;28;20583;-77
2022/11/04 12:55:21;;;;;;;11.07;8.07;;;;;;;;;;4948343;29;20383;-77
2022/11/04 12:58:05;;;;;;;14.38;8.27;;;;;;;;;;4952401;29;20029;-77
2022/11/04 13:00:31;;;;;;;12.07;8.18;;;;;;;;;;4950813;28;20200;-77
2022/11/04 13:03:03;;;;;;;11.10;8.25;;;;;;;;;;4949589;28;20027;-78
2022/11/04 13:05:41;;;;;;;15.35;9.43;;;;;;;;;;4954137;29;20054;-77
2022/11/04 13:08:29;;;;;;;14.93;8.93;;;;;;;;;;4953333;28;20038;-77
2022/11/04 13:11:02;;;;;;;11.88;8.27;;;;;;;;;;4949232;28;20498;-76
2022/11/04 13:13:35;;;;;;;11.67;8.00;;;;;;;;;;4951593;28;20728;-78
2022/11/04 13:16:10;;;;;;;;;;;;;;;;;;4951043;28;20097;-77
2022/11/04 13:18:39;;;;;;;12.45;7.22;;;;;;;;;;4949946;29;19915;-77
2022/11/04 13:21:14;;;;;;;12.07;7.50;;;;;;;;;;4956105;29;20102;-76
2022/11/04 13:23:50;;;;;;;11.90;7.93;;;;;;;;;;4953943;28;20089;-77
2022/11/04 13:26:17;;;;;;;13.35;8.38;;;;;;;;;;4955622;28;20029;-76
2022/11/04 13:28:46;;;;;;;15.75;8.25;;;;;;;;;;4970318;28;20122;-77
2022/11/04 13:31:33;;;;;;;9.80;7.40;;;;;;;;;;4955161;28;20616;-77
2022/11/04 13:34:31;;;;;;;13.32;7.88;;;;;;;;;;4964591;28;20451;-76
2022/11/04 13:37:18;;;;;;;11.23;7.00;;;;;;;;;;4956165;28;20038;-77
2022/11/04 13:39:53;;;;;;;10.95;6.93;;;;;;;;;;4949073;28;20492;-77
2022/11/04 13:42:37;;;;;;;10.18;6.28;;;;;;;;;;4950963;28;20031;-76
2022/11/04 13:45:10;;;;;;;10.32;6.32;;;;;;;;;;4941250;28;20487;-77
2022/11/04 13:47:42;;;;;;;10.07;6.38;;;;;;;;;;4957385;28;20031;-78
2022/11/04 13:50:27;;;;;;;9.80;5.85;;;;;;;;;;4967603;28;20101;-77
2022/11/04 13:52:53;;;;;;;12.45;6.50;;;;;;;;;;4949476;28;20491;-77
2022/11/04 13:55:20;;;;;;;9.57;5.80;;;;;;;;;;4965081;28;20039;-78
2022/11/04 13:57:57;;;;;;;10.15;6.10;;;;;;;;;;4950052;28;20543;-77
2022/11/04 14:00:27;;;;;;;9.05;5.70;;;;;;;;;;4943858;28;20037;-77
2022/11/04 14:02:58;;;;;;;11.13;5.80;;;;;;;;;;4963685;28;20395;-76
2022/11/04 14:05:31;;;;;;;8.63;5.28;;;;;;;;;;4950260;29;20459;-75
2022/11/04 14:08:02;;;;;;;9.30;5.00;;;;;;;;;;4967764;28;20114;-76
2022/11/04 14:10:52;;;;;;;8.93;4.78;;;;;;;;;;4958776;28;20063;-78
2022/11/04 14:13:27;;;;;;;7.72;3.47;;;;;;;;;;4969679;28;20066;-77
2022/11/04 14:16:31;;;;;;;7.97;3.30;;;;;;;;;;4964964;28;20209;-77
2022/11/04 14:18:56;;;;;;;8.20;3.10;;;;;;;;;;4948185;28;20031;-77
2022/11/04 14:21:24;;;;;;;7.30;2.95;;;;;;;;;;4959598;28;20082;-77
2022/11/04 14:24:00;;;;;;;5.40;2.67;;;;;;;;;;4951019;29;20443;-77
2022/11/04 14:26:41;;;;;;;5.15;2.75;;;;;;;;;;4950516;28;20119;-77
2022/11/04 14:29:16;;;;;;;6.07;2.88;;;;;;;;;;4948980;28;20027;-77
2022/11/04 14:31:48;;;;;;;4.50;2.80;;;;;;;;;;4948959;28;20126;-77
2022/11/04 14:34:31;;;;;;;6.60;3.00;;;;;;;;;;4952611;29;20094;-77
2022/11/04 14:37:19;;;;;;;6.90;3.00;;;;;;;;;;4952893;29;20035;-77
2022/11/04 14:39:44;;;;;;;8.25;3.58;;;;;;;;;;4944523;28;20035;-78
2022/11/04 14:42:12;;;;;;;7.65;3.25;;;;;;;;;;4949121;28;20035;-76
2022/11/04 14:44:43;;;;;;;6.43;3.88;;;;;;;;;;4967605;28;20023;-78
2022/11/04 14:47:19;;;;;;;6.32;3.15;;;;;;;;;;4952983;28;20507;-77
2022/11/04 14:49:49;;;;;;;4.97;2.70;;;;;;;;;;4966737;28;20535;-77
2022/11/04 14:52:28;;;;;;;7.88;2.20;;;;;;;;;;4947362;28;20522;-77
2022/11/04 14:55:04;;;;;;;3.60;1.92;;;;;;;;;;4949458;28;20384;-78
2022/11/04 14:57:36;;;;;;;3.58;1.90;;;;;;;;;;4952644;28;20046;-77
2022/11/04 15:00:26;;;;;;;2.97;1.40;;;;;;;;;;4954221;28;20494;-78
2022/11/04 15:03:20;;;;;;;3.25;1.10;;;;;;;;;;4953800;29;20554;-77
2022/11/04 15:06:00;;;;;;;2.95;1.30;;;;;;;;;;4953274;28;20053;-76
2022/11/04 15:08:44;;;;;;;3.60;1.00;;;;;;;;;;4954007;29;20118;-76
2022/11/04 15:11:09;;;;;;;2.78;1.00;;;;;;;;;;4969990;28;20039;-76
2022/11/04 15:13:37;;;;;;;2.17;0.95;;;;;;;;;;4968349;28;20041;-77
2022/11/04 15:16:24;;;;;;;3.03;1.00;;;;;;;;;;4951945;28;20034;-77
2022/11/04 15:18:52;;;;;;;2.25;0.85;;;;;;;;;;4967025;28;20031;-77
2022/11/04 15:21:18;;;;;;;4.43;0.98;;;;;;;;;;4954697;28;20479;-76
2022/11/04 15:23:46;;;;;;;2.33;0.80;;;;;;;;;;4969334;28;20039;-76
2022/11/04 15:26:22;;;;;;;2.08;0.70;;;;;;;;;;4953762;28;20114;-76
2022/11/04 15:28:49;;;;;;;1.23;0.50;;;;;;;;;;4968082;28;20038;-77
2022/11/04 15:31:26;;;;;;;1.33;0.40;;;;;;;;;;4966568;28;20034;-76
2022/11/04 15:33:57;;;;;;;2.15;0.52;;;;;;;;;;4952823;29;20031;-76
2022/11/04 15:36:28;;;;;;;0.93;0.70;;;;;;;;;;4948532;29;20031;-76
2022/11/04 15:39:14;;;;;;;1.13;0.65;;;;;;;;;;4954117;28;20027;-77
2022/11/04 15:44:27;;;;;;;1.75;0.73;;;;;;;;;;4951113;29;20510;-78